sensor_id;sensor_type;location;lat;lon;timestamp;P1;durP1;ratioP1;P2;durP2;ratioP2
10529;SDS011;5313;48.834;9.228;2022-08-19T00:00:23;14.10;;;12.60;;
10529;SDS011;5313;48.834;9.228;2022-08-19T00:02:49;13.20;;;11.80;;
10529;SDS011;5313;48.834;9.228;2022-08-19T00:05:15;13.30;;;11.83;;
10529;SDS011;5313;48.834;9.228;2022-08-19T00:07:41;13.53;;;12.13;;
10529;SDS011;5313;48.834;9.228;2022-08-19T00:10:08;14.93;;;12.13;;
10529;SDS011;5313;48.834;9.228;2022-08-19T00:12:34;12.87;;;11.53;;
10529;SDS011;5313;48.834;9.228;2022-08-19T00:15:01;14.00;;;12.43;;
10529;SDS011;5313;48.834;9.228;2022-08-19T00:17:27;16.23;;;12.50;;
10529;SDS011;5313;48.834;9.228;2022-08-19T00:19:52;12.90;;;11.20;;
10529;SDS011;5313;48.834;9.228;2022-08-19T00:22:18;13.43;;;11.53;;
10529;SDS011;5313;48.834;9.228;2022-08-19T00:24:44;13.80;;;12.37;;
10529;SDS011;5313;48.834;9.228;2022-08-19T00:27:10;12.97;;;11.43;;
10529;SDS011;5313;48.834;9.228;2022-08-19T00:29:37;13.30;;;11.90;;
10529;SDS011;5313;48.834;9.228;2022-08-19T00:32:03;15.27;;;11.80;;
10529;SDS011;5313;48.834;9.228;2022-08-19T00:34:29;13.90;;;11.50;;
10529;SDS011;5313;48.834;9.228;2022-08-19T00:36:55;17.43;;;12.30;;
10529;SDS011;5313;48.834;9.228;2022-08-19T00:39:21;14.20;;;12.40;;
10529;SDS011;5313;48.834;9.228;2022-08-19T00:41:50;14.03;;;11.97;;
10529;SDS011;5313;48.834;9.228;2022-08-19T00:44:18;14.93;;;12.03;;
10529;SDS011;5313;48.834;9.228;2022-08-19T00:46:50;14.10;;;11.70;;
10529;SDS011;5313;48.834;9.228;2022-08-19T00:52:20;13.53;;;11.90;;
10529;SDS011;5313;48.834;9.228;2022-08-19T00:54:53;13.40;;;11.37;;
10529;SDS011;5313;48.834;9.228;2022-08-19T00:57:22;14.93;;;12.10;;
10529;SDS011;5313;48.834;9.228;2022-08-19T01:00:10;13.87;;;12.23;;
10529;SDS011;5313;48.834;9.228;2022-08-19T01:02:38;14.60;;;12.03;;
10529;SDS011;5313;48.834;9.228;2022-08-19T01:05:06;15.10;;;11.63;;
10529;SDS011;5313;48.834;9.228;2022-08-19T01:07:37;13.90;;;11.70;;
10529;SDS011;5313;48.834;9.228;2022-08-19T01:10:05;15.27;;;11.77;;
10529;SDS011;5313;48.834;9.228;2022-08-19T01:12:33;14.97;;;12.53;;
10529;SDS011;5313;48.834;9.228;2022-08-19T01:14:59;14.30;;;12.07;;
10529;SDS011;5313;48.834;9.228;2022-08-19T01:17:25;14.73;;;12.37;;
10529;SDS011;5313;48.834;9.228;2022-08-19T01:19:51;14.80;;;11.73;;
10529;SDS011;5313;48.834;9.228;2022-08-19T01:22:19;13.87;;;11.17;;
10529;SDS011;5313;48.834;9.228;2022-08-19T01:25:00;15.03;;;11.93;;
10529;SDS011;5313;48.834;9.228;2022-08-19T01:27:26;13.87;;;12.03;;
10529;SDS011;5313;48.834;9.228;2022-08-19T01:29:52;17.27;;;12.70;;
10529;SDS011;5313;48.834;9.228;2022-08-19T01:32:17;15.37;;;12.13;;
10529;SDS011;5313;48.834;9.228;2022-08-19T01:34:44;13.47;;;11.90;;
10529;SDS011;5313;48.834;9.228;2022-08-19T01:37:13;13.13;;;11.50;;
10529;SDS011;5313;48.834;9.228;2022-08-19T01:39:39;14.03;;;12.03;;
10529;SDS011;5313;48.834;9.228;2022-08-19T01:42:06;15.53;;;12.47;;
10529;SDS011;5313;48.834;9.228;2022-08-19T01:44:36;16.30;;;12.43;;
10529;SDS011;5313;48.834;9.228;2022-08-19T01:47:03;18.20;;;13.00;;
10529;SDS011;5313;48.834;9.228;2022-08-19T01:49:28;15.43;;;12.93;;
10529;SDS011;5313;48.834;9.228;2022-08-19T01:51:54;16.20;;;13.07;;
10529;SDS011;5313;48.834;9.228;2022-08-19T01:54:22;16.70;;;13.53;;
10529;SDS011;5313;48.834;9.228;2022-08-19T01:56:49;15.63;;;13.17;;
10529;SDS011;5313;48.834;9.228;2022-08-19T01:59:18;15.90;;;13.13;;
10529;SDS011;5313;48.834;9.228;2022-08-19T02:01:45;17.60;;;13.57;;
10529;SDS011;5313;48.834;9.228;2022-08-19T02:04:11;16.73;;;13.33;;
10529;SDS011;5313;48.834;9.228;2022-08-19T02:06:36;17.40;;;13.73;;
10529;SDS011;5313;48.834;9.228;2022-08-19T02:09:03;17.13;;;13.63;;
10529;SDS011;5313;48.834;9.228;2022-08-19T02:11:31;16.43;;;13.33;;
10529;SDS011;5313;48.834;9.228;2022-08-19T02:13:58;16.83;;;13.23;;
10529;SDS011;5313;48.834;9.228;2022-08-19T02:16:26;17.10;;;14.43;;
10529;SDS011;5313;48.834;9.228;2022-08-19T02:18:52;19.37;;;14.30;;
10529;SDS011;5313;48.834;9.228;2022-08-19T02:21:18;18.73;;;13.53;;
10529;SDS011;5313;48.834;9.228;2022-08-19T02:23:45;19.30;;;15.50;;
10529;SDS011;5313;48.834;9.228;2022-08-19T02:26:11;18.40;;;15.07;;
10529;SDS011;5313;48.834;9.228;2022-08-19T02:28:38;18.00;;;14.53;;
10529;SDS011;5313;48.834;9.228;2022-08-19T02:31:08;20.87;;;14.87;;
10529;SDS011;5313;48.834;9.228;2022-08-19T02:33:37;21.87;;;15.50;;
10529;SDS011;5313;48.834;9.228;2022-08-19T02:36:04;19.70;;;15.27;;
10529;SDS011;5313;48.834;9.228;2022-08-19T02:38:31;20.67;;;17.03;;
10529;SDS011;5313;48.834;9.228;2022-08-19T02:40:58;19.77;;;16.10;;
10529;SDS011;5313;48.834;9.228;2022-08-19T02:43:26;19.07;;;15.00;;
10529;SDS011;5313;48.834;9.228;2022-08-19T02:45:53;20.57;;;16.33;;
10529;SDS011;5313;48.834;9.228;2022-08-19T02:48:19;21.93;;;16.10;;
10529;SDS011;5313;48.834;9.228;2022-08-19T02:50:46;19.73;;;15.80;;
10529;SDS011;5313;48.834;9.228;2022-08-19T02:53:16;19.83;;;15.47;;
10529;SDS011;5313;48.834;9.228;2022-08-19T02:55:42;20.60;;;16.50;;
10529;SDS011;5313;48.834;9.228;2022-08-19T02:58:10;22.53;;;16.47;;
10529;SDS011;5313;48.834;9.228;2022-08-19T03:00:40;20.43;;;16.13;;
10529;SDS011;5313;48.834;9.228;2022-08-19T03:03:11;21.43;;;17.13;;
10529;SDS011;5313;48.834;9.228;2022-08-19T03:05:37;20.33;;;16.90;;
10529;SDS011;5313;48.834;9.228;2022-08-19T03:08:02;21.63;;;16.50;;
10529;SDS011;5313;48.834;9.228;2022-08-19T03:10:29;25.00;;;17.73;;
10529;SDS011;5313;48.834;9.228;2022-08-19T03:12:54;24.97;;;17.13;;
10529;SDS011;5313;48.834;9.228;2022-08-19T03:15:20;20.87;;;17.27;;
10529;SDS011;5313;48.834;9.228;2022-08-19T03:17:45;24.47;;;18.17;;
10529;SDS011;5313;48.834;9.228;2022-08-19T03:20:11;23.13;;;17.27;;
10529;SDS011;5313;48.834;9.228;2022-08-19T03:22:36;22.43;;;16.73;;
10529;SDS011;5313;48.834;9.228;2022-08-19T03:25:02;21.43;;;17.07;;
10529;SDS011;5313;48.834;9.228;2022-08-19T03:27:28;21.70;;;17.93;;
10529;SDS011;5313;48.834;9.228;2022-08-19T03:29:54;24.37;;;17.60;;
10529;SDS011;5313;48.834;9.228;2022-08-19T03:32:20;23.07;;;18.30;;
10529;SDS011;5313;48.834;9.228;2022-08-19T03:34:46;24.73;;;18.47;;
10529;SDS011;5313;48.834;9.228;2022-08-19T03:37:12;23.07;;;18.13;;
10529;SDS011;5313;48.834;9.228;2022-08-19T03:39:38;21.80;;;18.10;;
10529;SDS011;5313;48.834;9.228;2022-08-19T03:42:04;24.30;;;19.07;;
10529;SDS011;5313;48.834;9.228;2022-08-19T03:44:31;23.17;;;18.83;;
10529;SDS011;5313;48.834;9.228;2022-08-19T03:46:58;23.43;;;18.37;;
10529;SDS011;5313;48.834;9.228;2022-08-19T03:49:25;23.77;;;18.70;;
10529;SDS011;5313;48.834;9.228;2022-08-19T03:51:53;24.57;;;18.57;;
10529;SDS011;5313;48.834;9.228;2022-08-19T03:54:21;22.37;;;19.00;;
10529;SDS011;5313;48.834;9.228;2022-08-19T03:56:49;22.57;;;18.37;;
10529;SDS011;5313;48.834;9.228;2022-08-19T03:59:17;23.87;;;19.40;;
10529;SDS011;5313;48.834;9.228;2022-08-19T04:01:45;23.90;;;18.77;;
10529;SDS011;5313;48.834;9.228;2022-08-19T04:04:10;26.50;;;19.37;;
10529;SDS011;5313;48.834;9.228;2022-08-19T04:06:37;24.90;;;19.47;;
10529;SDS011;5313;48.834;9.228;2022-08-19T04:09:04;24.50;;;19.43;;
10529;SDS011;5313;48.834;9.228;2022-08-19T04:11:39;24.63;;;18.80;;
10529;SDS011;5313;48.834;9.228;2022-08-19T04:14:07;23.53;;;19.53;;
10529;SDS011;5313;48.834;9.228;2022-08-19T04:16:34;25.47;;;19.67;;
10529;SDS011;5313;48.834;9.228;2022-08-19T04:19:01;25.97;;;19.50;;
10529;SDS011;5313;48.834;9.228;2022-08-19T04:21:28;23.33;;;19.57;;
10529;SDS011;5313;48.834;9.228;2022-08-19T04:23:54;26.13;;;20.17;;
10529;SDS011;5313;48.834;9.228;2022-08-19T04:26:22;24.00;;;20.07;;
10529;SDS011;5313;48.834;9.228;2022-08-19T04:28:49;26.40;;;20.53;;
10529;SDS011;5313;48.834;9.228;2022-08-19T04:31:18;22.73;;;18.83;;
10529;SDS011;5313;48.834;9.228;2022-08-19T04:33:45;24.30;;;19.27;;
10529;SDS011;5313;48.834;9.228;2022-08-19T04:36:18;24.20;;;20.40;;
10529;SDS011;5313;48.834;9.228;2022-08-19T04:38:49;24.87;;;19.90;;
10529;SDS011;5313;48.834;9.228;2022-08-19T04:41:19;25.43;;;20.23;;
10529;SDS011;5313;48.834;9.228;2022-08-19T04:44:03;23.67;;;19.23;;
10529;SDS011;5313;48.834;9.228;2022-08-19T04:46:29;31.27;;;20.90;;
10529;SDS011;5313;48.834;9.228;2022-08-19T04:48:57;27.37;;;19.70;;
10529;SDS011;5313;48.834;9.228;2022-08-19T04:51:23;26.87;;;19.87;;
10529;SDS011;5313;48.834;9.228;2022-08-19T04:53:49;26.00;;;20.37;;
10529;SDS011;5313;48.834;9.228;2022-08-19T04:56:17;26.80;;;20.57;;
10529;SDS011;5313;48.834;9.228;2022-08-19T04:58:46;25.57;;;20.53;;
10529;SDS011;5313;48.834;9.228;2022-08-19T05:01:15;25.70;;;20.40;;
10529;SDS011;5313;48.834;9.228;2022-08-19T05:03:43;25.70;;;20.10;;
10529;SDS011;5313;48.834;9.228;2022-08-19T05:06:10;24.20;;;19.77;;
10529;SDS011;5313;48.834;9.228;2022-08-19T05:08:39;25.83;;;20.43;;
10529;SDS011;5313;48.834;9.228;2022-08-19T05:11:12;24.30;;;19.80;;
10529;SDS011;5313;48.834;9.228;2022-08-19T05:13:43;26.83;;;20.27;;
10529;SDS011;5313;48.834;9.228;2022-08-19T05:16:10;25.37;;;19.57;;
10529;SDS011;5313;48.834;9.228;2022-08-19T05:18:37;24.70;;;21.00;;
10529;SDS011;5313;48.834;9.228;2022-08-19T05:21:22;26.13;;;19.93;;
10529;SDS011;5313;48.834;9.228;2022-08-19T05:24:06;25.70;;;20.57;;
10529;SDS011;5313;48.834;9.228;2022-08-19T05:26:36;24.90;;;19.73;;
10529;SDS011;5313;48.834;9.228;2022-08-19T05:29:02;25.77;;;21.23;;
10529;SDS011;5313;48.834;9.228;2022-08-19T05:31:29;25.30;;;21.27;;
10529;SDS011;5313;48.834;9.228;2022-08-19T05:33:55;24.40;;;19.97;;
10529;SDS011;5313;48.834;9.228;2022-08-19T05:36:23;24.90;;;20.23;;
10529;SDS011;5313;48.834;9.228;2022-08-19T05:38:53;24.27;;;19.63;;
10529;SDS011;5313;48.834;9.228;2022-08-19T05:41:19;25.97;;;20.07;;
10529;SDS011;5313;48.834;9.228;2022-08-19T05:43:45;23.53;;;19.67;;
10529;SDS011;5313;48.834;9.228;2022-08-19T05:46:18;24.47;;;19.63;;
10529;SDS011;5313;48.834;9.228;2022-08-19T05:48:44;22.90;;;20.10;;
10529;SDS011;5313;48.834;9.228;2022-08-19T05:51:10;23.73;;;19.30;;
10529;SDS011;5313;48.834;9.228;2022-08-19T05:53:36;24.67;;;19.30;;
10529;SDS011;5313;48.834;9.228;2022-08-19T05:56:05;23.83;;;20.10;;
10529;SDS011;5313;48.834;9.228;2022-08-19T05:58:36;25.30;;;20.10;;
10529;SDS011;5313;48.834;9.228;2022-08-19T06:01:03;26.23;;;20.97;;
10529;SDS011;5313;48.834;9.228;2022-08-19T06:03:33;29.10;;;21.10;;
10529;SDS011;5313;48.834;9.228;2022-08-19T06:06:02;23.37;;;20.07;;
10529;SDS011;5313;48.834;9.228;2022-08-19T06:08:28;25.97;;;21.07;;
10529;SDS011;5313;48.834;9.228;2022-08-19T06:10:54;24.23;;;20.73;;
10529;SDS011;5313;48.834;9.228;2022-08-19T06:13:20;27.00;;;21.13;;
10529;SDS011;5313;48.834;9.228;2022-08-19T06:15:47;25.63;;;20.90;;
10529;SDS011;5313;48.834;9.228;2022-08-19T06:18:13;28.63;;;21.10;;
10529;SDS011;5313;48.834;9.228;2022-08-19T06:20:39;27.40;;;20.23;;
10529;SDS011;5313;48.834;9.228;2022-08-19T06:23:06;26.60;;;20.60;;
10529;SDS011;5313;48.834;9.228;2022-08-19T06:25:33;24.83;;;20.13;;
10529;SDS011;5313;48.834;9.228;2022-08-19T06:27:58;25.17;;;20.10;;
10529;SDS011;5313;48.834;9.228;2022-08-19T06:30:24;27.60;;;21.70;;
10529;SDS011;5313;48.834;9.228;2022-08-19T06:32:49;27.13;;;20.87;;
10529;SDS011;5313;48.834;9.228;2022-08-19T06:35:15;26.83;;;21.87;;
10529;SDS011;5313;48.834;9.228;2022-08-19T06:37:41;25.47;;;20.73;;
10529;SDS011;5313;48.834;9.228;2022-08-19T06:40:08;27.43;;;20.83;;
10529;SDS011;5313;48.834;9.228;2022-08-19T06:42:35;25.73;;;20.93;;
10529;SDS011;5313;48.834;9.228;2022-08-19T06:45:03;29.47;;;22.40;;
10529;SDS011;5313;48.834;9.228;2022-08-19T06:47:30;28.93;;;21.43;;
10529;SDS011;5313;48.834;9.228;2022-08-19T06:49:57;28.97;;;21.83;;
10529;SDS011;5313;48.834;9.228;2022-08-19T06:52:34;26.83;;;22.37;;
10529;SDS011;5313;48.834;9.228;2022-08-19T06:55:01;27.43;;;21.83;;
10529;SDS011;5313;48.834;9.228;2022-08-19T06:57:27;26.33;;;21.83;;
10529;SDS011;5313;48.834;9.228;2022-08-19T06:59:57;26.93;;;20.40;;
10529;SDS011;5313;48.834;9.228;2022-08-19T07:02:24;25.30;;;20.93;;
10529;SDS011;5313;48.834;9.228;2022-08-19T07:04:51;29.37;;;21.80;;
10529;SDS011;5313;48.834;9.228;2022-08-19T07:07:17;25.03;;;20.60;;
10529;SDS011;5313;48.834;9.228;2022-08-19T07:09:43;27.50;;;21.57;;
10529;SDS011;5313;48.834;9.228;2022-08-19T07:12:10;27.47;;;21.30;;
10529;SDS011;5313;48.834;9.228;2022-08-19T07:14:38;25.10;;;20.57;;
10529;SDS011;5313;48.834;9.228;2022-08-19T07:17:08;24.60;;;20.70;;
10529;SDS011;5313;48.834;9.228;2022-08-19T07:19:35;23.67;;;19.97;;
10529;SDS011;5313;48.834;9.228;2022-08-19T07:22:02;27.00;;;20.90;;
10529;SDS011;5313;48.834;9.228;2022-08-19T07:24:30;25.17;;;20.03;;
10529;SDS011;5313;48.834;9.228;2022-08-19T07:26:58;24.10;;;19.57;;
10529;SDS011;5313;48.834;9.228;2022-08-19T07:29:29;23.80;;;19.80;;
10529;SDS011;5313;48.834;9.228;2022-08-19T07:31:56;24.10;;;20.13;;
10529;SDS011;5313;48.834;9.228;2022-08-19T07:34:24;24.67;;;20.10;;
10529;SDS011;5313;48.834;9.228;2022-08-19T07:36:50;24.23;;;18.77;;
10529;SDS011;5313;48.834;9.228;2022-08-19T07:39:17;22.33;;;19.67;;
10529;SDS011;5313;48.834;9.228;2022-08-19T07:41:45;22.90;;;19.87;;
10529;SDS011;5313;48.834;9.228;2022-08-19T07:44:11;24.30;;;19.43;;
10529;SDS011;5313;48.834;9.228;2022-08-19T07:46:40;23.00;;;18.10;;
10529;SDS011;5313;48.834;9.228;2022-08-19T07:49:09;22.13;;;18.53;;
10529;SDS011;5313;48.834;9.228;2022-08-19T07:51:42;22.90;;;19.10;;
10529;SDS011;5313;48.834;9.228;2022-08-19T07:54:08;23.40;;;18.80;;
10529;SDS011;5313;48.834;9.228;2022-08-19T07:56:34;24.33;;;18.13;;
10529;SDS011;5313;48.834;9.228;2022-08-19T07:58:59;23.07;;;18.87;;
10529;SDS011;5313;48.834;9.228;2022-08-19T08:01:26;22.63;;;19.60;;
10529;SDS011;5313;48.834;9.228;2022-08-19T08:03:53;23.57;;;19.43;;
10529;SDS011;5313;48.834;9.228;2022-08-19T08:06:38;25.93;;;20.03;;
10529;SDS011;5313;48.834;9.228;2022-08-19T08:09:33;24.17;;;19.90;;
10529;SDS011;5313;48.834;9.228;2022-08-19T08:12:15;23.77;;;19.70;;
10529;SDS011;5313;48.834;9.228;2022-08-19T08:14:47;24.53;;;18.97;;
10529;SDS011;5313;48.834;9.228;2022-08-19T08:17:15;34.17;;;21.60;;
10529;SDS011;5313;48.834;9.228;2022-08-19T08:19:42;28.53;;;20.33;;
10529;SDS011;5313;48.834;9.228;2022-08-19T08:22:08;23.47;;;18.63;;
10529;SDS011;5313;48.834;9.228;2022-08-19T08:24:55;29.87;;;19.60;;
10529;SDS011;5313;48.834;9.228;2022-08-19T08:27:23;21.60;;;19.23;;
10529;SDS011;5313;48.834;9.228;2022-08-19T08:29:49;25.13;;;19.73;;
10529;SDS011;5313;48.834;9.228;2022-08-19T08:32:14;25.70;;;20.77;;
10529;SDS011;5313;48.834;9.228;2022-08-19T08:34:40;24.87;;;19.73;;
10529;SDS011;5313;48.834;9.228;2022-08-19T08:37:06;24.53;;;19.77;;
10529;SDS011;5313;48.834;9.228;2022-08-19T08:39:31;24.97;;;19.20;;
10529;SDS011;5313;48.834;9.228;2022-08-19T08:47:05;24.50;;;20.20;;
10529;SDS011;5313;48.834;9.228;2022-08-19T08:49:44;24.17;;;18.93;;
10529;SDS011;5313;48.834;9.228;2022-08-19T08:54:42;22.70;;;18.80;;
10529;SDS011;5313;48.834;9.228;2022-08-19T08:57:12;24.20;;;18.63;;
10529;SDS011;5313;48.834;9.228;2022-08-19T08:59:43;23.30;;;19.10;;
10529;SDS011;5313;48.834;9.228;2022-08-19T09:02:16;22.20;;;16.77;;
10529;SDS011;5313;48.834;9.228;2022-08-19T09:04:42;21.43;;;17.60;;
10529;SDS011;5313;48.834;9.228;2022-08-19T09:09:49;19.83;;;16.47;;
10529;SDS011;5313;48.834;9.228;2022-08-19T09:12:28;20.33;;;17.03;;
10529;SDS011;5313;48.834;9.228;2022-08-19T09:15:04;22.70;;;17.43;;
10529;SDS011;5313;48.834;9.228;2022-08-19T09:17:33;20.00;;;16.93;;
10529;SDS011;5313;48.834;9.228;2022-08-19T09:20:06;20.07;;;16.23;;
10529;SDS011;5313;48.834;9.228;2022-08-19T09:22:38;19.87;;;16.80;;
10529;SDS011;5313;48.834;9.228;2022-08-19T09:25:05;23.00;;;16.63;;
10529;SDS011;5313;48.834;9.228;2022-08-19T09:27:33;17.83;;;15.93;;
10529;SDS011;5313;48.834;9.228;2022-08-19T09:30:00;18.67;;;16.37;;
10529;SDS011;5313;48.834;9.228;2022-08-19T09:32:26;17.03;;;15.23;;
10529;SDS011;5313;48.834;9.228;2022-08-19T09:34:52;19.97;;;16.03;;
10529;SDS011;5313;48.834;9.228;2022-08-19T09:37:23;19.27;;;16.40;;
10529;SDS011;5313;48.834;9.228;2022-08-19T09:39:49;19.13;;;15.27;;
10529;SDS011;5313;48.834;9.228;2022-08-19T09:42:15;18.00;;;15.40;;
10529;SDS011;5313;48.834;9.228;2022-08-19T09:44:42;18.80;;;15.47;;
10529;SDS011;5313;48.834;9.228;2022-08-19T09:47:08;17.60;;;14.93;;
10529;SDS011;5313;48.834;9.228;2022-08-19T09:49:36;17.97;;;15.23;;
10529;SDS011;5313;48.834;9.228;2022-08-19T09:52:02;19.87;;;15.07;;
10529;SDS011;5313;48.834;9.228;2022-08-19T09:54:28;16.80;;;14.47;;
10529;SDS011;5313;48.834;9.228;2022-08-19T09:56:54;17.90;;;13.40;;
10529;SDS011;5313;48.834;9.228;2022-08-19T09:59:22;16.63;;;13.20;;
10529;SDS011;5313;48.834;9.228;2022-08-19T10:01:48;18.80;;;14.00;;
10529;SDS011;5313;48.834;9.228;2022-08-19T10:04:14;18.07;;;13.43;;
10529;SDS011;5313;48.834;9.228;2022-08-19T10:06:39;17.47;;;13.43;;
10529;SDS011;5313;48.834;9.228;2022-08-19T10:09:07;19.50;;;12.97;;
10529;SDS011;5313;48.834;9.228;2022-08-19T10:11:34;16.70;;;12.97;;
10529;SDS011;5313;48.834;9.228;2022-08-19T10:14:02;14.20;;;12.70;;
10529;SDS011;5313;48.834;9.228;2022-08-19T10:16:30;18.47;;;13.10;;
10529;SDS011;5313;48.834;9.228;2022-08-19T10:18:56;19.47;;;14.27;;
10529;SDS011;5313;48.834;9.228;2022-08-19T10:21:26;19.57;;;13.10;;
10529;SDS011;5313;48.834;9.228;2022-08-19T10:23:55;13.60;;;12.17;;
10529;SDS011;5313;48.834;9.228;2022-08-19T10:26:30;15.47;;;12.57;;
10529;SDS011;5313;48.834;9.228;2022-08-19T10:28:58;15.93;;;13.33;;
10529;SDS011;5313;48.834;9.228;2022-08-19T10:31:25;16.30;;;12.80;;
10529;SDS011;5313;48.834;9.228;2022-08-19T10:33:53;13.17;;;11.77;;
10529;SDS011;5313;48.834;9.228;2022-08-19T10:36:22;13.10;;;11.80;;
10529;SDS011;5313;48.834;9.228;2022-08-19T10:38:53;13.37;;;11.97;;
10529;SDS011;5313;48.834;9.228;2022-08-19T10:41:24;16.83;;;11.53;;
10529;SDS011;5313;48.834;9.228;2022-08-19T10:43:55;15.23;;;11.50;;
10529;SDS011;5313;48.834;9.228;2022-08-19T10:46:26;15.73;;;11.50;;
10529;SDS011;5313;48.834;9.228;2022-08-19T10:48:53;13.97;;;11.30;;
10529;SDS011;5313;48.834;9.228;2022-08-19T10:51:20;19.70;;;13.63;;
10529;SDS011;5313;48.834;9.228;2022-08-19T10:54:04;14.93;;;10.90;;
10529;SDS011;5313;48.834;9.228;2022-08-19T10:56:30;13.20;;;9.90;;
10529;SDS011;5313;48.834;9.228;2022-08-19T10:59:15;13.87;;;10.37;;
10529;SDS011;5313;48.834;9.228;2022-08-19T11:01:43;10.67;;;9.27;;
10529;SDS011;5313;48.834;9.228;2022-08-19T11:04:10;10.77;;;8.67;;
10529;SDS011;5313;48.834;9.228;2022-08-19T11:06:38;11.80;;;8.77;;
10529;SDS011;5313;48.834;9.228;2022-08-19T11:09:08;10.73;;;8.13;;
10529;SDS011;5313;48.834;9.228;2022-08-19T11:11:35;9.00;;;7.53;;
10529;SDS011;5313;48.834;9.228;2022-08-19T11:14:05;11.10;;;8.13;;
10529;SDS011;5313;48.834;9.228;2022-08-19T11:16:32;9.20;;;7.83;;
10529;SDS011;5313;48.834;9.228;2022-08-19T11:18:58;9.70;;;8.07;;
10529;SDS011;5313;48.834;9.228;2022-08-19T11:23:53;9.57;;;7.60;;
10529;SDS011;5313;48.834;9.228;2022-08-19T11:26:21;9.77;;;7.70;;
10529;SDS011;5313;48.834;9.228;2022-08-19T11:28:48;9.77;;;7.60;;
10529;SDS011;5313;48.834;9.228;2022-08-19T11:31:19;9.73;;;7.50;;
10529;SDS011;5313;48.834;9.228;2022-08-19T11:33:47;8.77;;;6.97;;
10529;SDS011;5313;48.834;9.228;2022-08-19T11:36:16;9.70;;;7.43;;
10529;SDS011;5313;48.834;9.228;2022-08-19T11:38:42;11.00;;;7.50;;
10529;SDS011;5313;48.834;9.228;2022-08-19T11:41:09;8.40;;;7.60;;
10529;SDS011;5313;48.834;9.228;2022-08-19T11:43:35;9.70;;;7.77;;
10529;SDS011;5313;48.834;9.228;2022-08-19T11:46:05;7.80;;;7.10;;
10529;SDS011;5313;48.834;9.228;2022-08-19T11:48:33;10.07;;;7.40;;
10529;SDS011;5313;48.834;9.228;2022-08-19T11:50:59;9.33;;;7.10;;
10529;SDS011;5313;48.834;9.228;2022-08-19T11:53:31;9.97;;;7.23;;
10529;SDS011;5313;48.834;9.228;2022-08-19T11:55:57;9.03;;;7.07;;
10529;SDS011;5313;48.834;9.228;2022-08-19T11:58:23;9.40;;;7.90;;
10529;SDS011;5313;48.834;9.228;2022-08-19T12:00:50;9.40;;;7.60;;
10529;SDS011;5313;48.834;9.228;2022-08-19T12:03:16;11.73;;;7.37;;
10529;SDS011;5313;48.834;9.228;2022-08-19T12:05:42;9.00;;;7.67;;
10529;SDS011;5313;48.834;9.228;2022-08-19T12:08:07;11.37;;;7.73;;
10529;SDS011;5313;48.834;9.228;2022-08-19T12:10:34;8.63;;;7.50;;
10529;SDS011;5313;48.834;9.228;2022-08-19T12:12:59;9.40;;;6.80;;
10529;SDS011;5313;48.834;9.228;2022-08-19T12:15:26;8.43;;;7.40;;
10529;SDS011;5313;48.834;9.228;2022-08-19T12:17:54;8.70;;;7.33;;
10529;SDS011;5313;48.834;9.228;2022-08-19T12:20:21;7.37;;;6.67;;
10529;SDS011;5313;48.834;9.228;2022-08-19T12:22:48;7.83;;;7.13;;
10529;SDS011;5313;48.834;9.228;2022-08-19T12:25:13;10.13;;;7.90;;
10529;SDS011;5313;48.834;9.228;2022-08-19T12:27:39;8.57;;;7.50;;
10529;SDS011;5313;48.834;9.228;2022-08-19T12:30:06;10.57;;;7.93;;
10529;SDS011;5313;48.834;9.228;2022-08-19T12:32:34;12.23;;;9.80;;
10529;SDS011;5313;48.834;9.228;2022-08-19T12:34:59;10.17;;;9.10;;
10529;SDS011;5313;48.834;9.228;2022-08-19T12:37:25;9.83;;;8.57;;
10529;SDS011;5313;48.834;9.228;2022-08-19T12:39:51;9.70;;;8.17;;
10529;SDS011;5313;48.834;9.228;2022-08-19T12:42:17;10.87;;;8.10;;
10529;SDS011;5313;48.834;9.228;2022-08-19T12:44:43;15.57;;;10.63;;
10529;SDS011;5313;48.834;9.228;2022-08-19T12:47:09;14.57;;;12.40;;
10529;SDS011;5313;48.834;9.228;2022-08-19T12:49:38;15.07;;;12.73;;
10529;SDS011;5313;48.834;9.228;2022-08-19T12:52:04;14.87;;;12.17;;
10529;SDS011;5313;48.834;9.228;2022-08-19T12:54:30;19.57;;;13.73;;
10529;SDS011;5313;48.834;9.228;2022-08-19T12:56:56;22.30;;;15.73;;
10529;SDS011;5313;48.834;9.228;2022-08-19T12:59:23;16.67;;;14.87;;
10529;SDS011;5313;48.834;9.228;2022-08-19T13:01:48;16.73;;;14.07;;
10529;SDS011;5313;48.834;9.228;2022-08-19T13:04:14;17.73;;;14.40;;
10529;SDS011;5313;48.834;9.228;2022-08-19T13:06:41;19.37;;;14.87;;
10529;SDS011;5313;48.834;9.228;2022-08-19T13:09:07;18.47;;;14.67;;
10529;SDS011;5313;48.834;9.228;2022-08-19T13:11:33;20.47;;;15.93;;
10529;SDS011;5313;48.834;9.228;2022-08-19T13:13:58;22.17;;;17.20;;
10529;SDS011;5313;48.834;9.228;2022-08-19T13:16:25;21.07;;;17.30;;
10529;SDS011;5313;48.834;9.228;2022-08-19T13:18:52;21.10;;;17.40;;
10529;SDS011;5313;48.834;9.228;2022-08-19T13:21:19;23.33;;;18.73;;
10529;SDS011;5313;48.834;9.228;2022-08-19T13:23:47;23.03;;;18.00;;
10529;SDS011;5313;48.834;9.228;2022-08-19T13:26:13;21.37;;;17.73;;
10529;SDS011;5313;48.834;9.228;2022-08-19T13:28:40;22.07;;;18.17;;
10529;SDS011;5313;48.834;9.228;2022-08-19T13:31:25;21.77;;;19.37;;
10529;SDS011;5313;48.834;9.228;2022-08-19T13:34:12;25.60;;;20.00;;
10529;SDS011;5313;48.834;9.228;2022-08-19T13:36:38;26.97;;;19.57;;
10529;SDS011;5313;48.834;9.228;2022-08-19T13:39:05;23.67;;;20.43;;
10529;SDS011;5313;48.834;9.228;2022-08-19T13:41:32;25.47;;;20.30;;
10529;SDS011;5313;48.834;9.228;2022-08-19T13:43:59;23.93;;;19.73;;
10529;SDS011;5313;48.834;9.228;2022-08-19T13:46:24;23.70;;;20.23;;
10529;SDS011;5313;48.834;9.228;2022-08-19T13:48:50;29.33;;;22.10;;
10529;SDS011;5313;48.834;9.228;2022-08-19T13:51:16;25.73;;;21.17;;
10529;SDS011;5313;48.834;9.228;2022-08-19T13:53:42;27.50;;;21.60;;
10529;SDS011;5313;48.834;9.228;2022-08-19T13:56:10;27.77;;;21.80;;
10529;SDS011;5313;48.834;9.228;2022-08-19T13:58:38;30.30;;;23.30;;
10529;SDS011;5313;48.834;9.228;2022-08-19T14:01:04;33.00;;;25.27;;
10529;SDS011;5313;48.834;9.228;2022-08-19T14:03:31;35.63;;;27.63;;
10529;SDS011;5313;48.834;9.228;2022-08-19T14:05:57;35.03;;;28.30;;
10529;SDS011;5313;48.834;9.228;2022-08-19T14:08:23;38.53;;;29.30;;
10529;SDS011;5313;48.834;9.228;2022-08-19T14:10:48;39.50;;;29.73;;
10529;SDS011;5313;48.834;9.228;2022-08-19T14:13:18;43.80;;;31.33;;
10529;SDS011;5313;48.834;9.228;2022-08-19T14:15:45;40.33;;;29.63;;
10529;SDS011;5313;48.834;9.228;2022-08-19T14:18:12;47.03;;;32.53;;
10529;SDS011;5313;48.834;9.228;2022-08-19T14:20:38;48.47;;;32.80;;
10529;SDS011;5313;48.834;9.228;2022-08-19T14:23:04;44.13;;;33.50;;
10529;SDS011;5313;48.834;9.228;2022-08-19T14:25:32;47.47;;;33.90;;
10529;SDS011;5313;48.834;9.228;2022-08-19T14:27:58;45.23;;;31.33;;
10529;SDS011;5313;48.834;9.228;2022-08-19T14:30:26;44.33;;;32.03;;
10529;SDS011;5313;48.834;9.228;2022-08-19T14:32:54;44.50;;;33.40;;
10529;SDS011;5313;48.834;9.228;2022-08-19T14:35:21;42.07;;;31.50;;
10529;SDS011;5313;48.834;9.228;2022-08-19T14:37:47;43.47;;;32.67;;
10529;SDS011;5313;48.834;9.228;2022-08-19T14:40:15;41.43;;;30.77;;
10529;SDS011;5313;48.834;9.228;2022-08-19T14:42:42;40.90;;;30.10;;
10529;SDS011;5313;48.834;9.228;2022-08-19T14:45:09;41.97;;;32.00;;
10529;SDS011;5313;48.834;9.228;2022-08-19T14:47:35;40.60;;;31.23;;
10529;SDS011;5313;48.834;9.228;2022-08-19T14:50:01;42.00;;;31.60;;
10529;SDS011;5313;48.834;9.228;2022-08-19T14:52:26;38.27;;;30.37;;
10529;SDS011;5313;48.834;9.228;2022-08-19T14:54:52;40.07;;;31.77;;
10529;SDS011;5313;48.834;9.228;2022-08-19T14:57:18;40.73;;;28.80;;